Time;durP1;ratioP1;P1;durP2;ratioP2;P2;SDS_P1;SDS_P2;PMS_P1;PMS_P2;Temp;Humidity;BMP_temperature;BMP_pressure;BME280_temperature;BME280_humidity;BME280_pressure;Samples;Min_cycle;Max_cycle;Signal;HPM_P1;HPM_P2
2022/08/08 00:01:46;;;;;;;1.90;0.35;;;;;;;22.67;43.20;102053.63;7384545;19;20010;-66
2022/08/08 00:04:41;;;;;;;1.40;0.50;;;;;;;22.63;44.07;102039.78;7380389;19;20046;-66
2022/08/08 00:07:19;;;;;;;2.10;0.32;;;;;;;22.60;44.46;102042.88;7383431;19;20018;-67
2022/08/08 00:10:31;;;;;;;2.38;0.28;;;;;;;22.57;45.12;102046.78;7382548;19;20018;-66
2022/08/08 00:13:08;;;;;;;3.55;0.30;;;;;;;22.59;45.70;102043.91;7379377;19;20021;-66
2022/08/08 00:15:45;;;;;;;1.63;0.22;;;;;;;22.53;45.88;102042.03;7379074;19;20520;-65
2022/08/08 00:18:34;;;;;;;1.77;0.30;;;;;;;22.50;46.05;102042.44;7382339;19;20007;-66
2022/08/08 00:21:03;;;;;;;1.23;0.22;;;;;;;22.48;46.25;102047.16;7383030;19;20421;-66
2022/08/08 00:23:45;;;;;;;1.43;0.30;;;;;;;22.47;46.62;102048.19;7383104;19;20056;-66
2022/08/08 00:26:42;;;;;;;3.85;0.20;;;;;;;22.46;46.44;102055.41;7383740;19;20010;-67
2022/08/08 00:29:32;;;;;;;1.45;0.30;;;;;;;22.46;47.00;102058.09;7383164;19;20021;-67
2022/08/08 00:32:19;;;;;;;2.20;0.30;;;;;;;22.47;47.17;102059.75;7383204;19;20330;-67
2022/08/08 00:35:34;;;;;;;3.50;0.30;;;;;;;22.45;46.97;102055.63;7380721;19;20015;-67
2022/08/08 00:38:32;;;;;;;2.03;0.30;;;;;;;22.42;47.66;102056.00;7380502;19;20486;-66
2022/08/08 00:41:34;;;;;;;1.65;0.30;;;;;;;22.41;48.36;102057.03;7383247;19;20014;-68
2022/08/08 00:44:40;;;;;;;1.50;0.40;;;;;;;22.39;47.60;102061.78;7380895;19;20017;-68
2022/08/08 00:47:28;;;;;;;2.00;0.30;;;;;;;22.37;47.74;102059.28;7382636;19;20455;-67
2022/08/08 00:50:40;;;;;;;2.80;0.30;;;;;;;22.34;48.16;102057.03;7379496;19;20021;-67
2022/08/08 00:53:18;;;;;;;2.08;0.30;;;;;;;22.33;47.85;102055.34;7386573;19;20371;-67
2022/08/08 00:55:55;;;;;;;4.03;0.30;;;;;;;22.32;47.81;102055.56;7390036;19;20045;-67
2022/08/08 00:58:51;;;;;;;4.95;0.50;;;;;;;22.29;48.64;102054.13;7390958;19;20041;-67
2022/08/08 01:01:47;;;;;;;1.95;0.60;;;;;;;22.25;48.00;102052.03;7390569;19;20589;-67
2022/08/08 01:04:39;;;;;;;3.13;0.45;;;;;;;22.24;48.01;102063.78;7386319;19;20573;-66
2022/08/08 01:07:35;;;;;;;3.20;0.40;;;;;;;22.20;48.10;102057.97;7390139;19;20037;-66
2022/08/08 01:10:56;;;;;;;1.08;0.20;;;;;;;22.16;48.48;102056.72;7387352;19;20019;-65
2022/08/08 01:13:42;;;;;;;2.10;0.30;;;;;;;22.12;48.68;102055.47;7389485;19;20513;-66
2022/08/08 01:16:37;;;;;;;1.38;0.30;;;;;;;22.09;48.74;102058.56;7389495;19;20437;-65
2022/08/08 01:20:01;;;;;;;1.45;0.40;;;;;;;22.05;48.51;102051.91;7386334;19;20019;-66
2022/08/08 01:23:10;;;;;;;3.22;0.35;;;;;;;22.02;49.09;102055.81;7389177;19;20010;-65
2022/08/08 01:26:45;;;;;;;1.60;0.40;;;;;;;21.97;49.14;102060.13;7387370;19;20359;-62
2022/08/08 01:29:39;;;;;;;2.90;0.70;;;;;;;21.96;49.07;102059.28;7386786;19;20102;-63
2022/08/08 01:32:57;;;;;;;2.42;0.50;;;;;;;21.92;49.48;102049.13;7386536;19;20315;-63
2022/08/08 01:36:20;;;;;;;2.05;0.40;;;;;;;21.86;49.46;102056.09;7383727;19;20030;-63
2022/08/08 01:38:54;;;;;;;1.88;0.30;;;;;;;21.77;49.97;102055.44;7388315;19;20441;-62
2022/08/08 01:41:30;;;;;;;2.90;0.30;;;;;;;21.72;50.19;102068.59;7387863;19;20102;-63
2022/08/08 01:44:24;;;;;;;1.75;0.40;;;;;;;21.69;50.44;102066.28;7387730;19;20018;-63
2022/08/08 01:47:06;;;;;;;3.47;0.40;;;;;;;21.67;50.74;102068.34;7388256;19;20014;-63
2022/08/08 01:50:14;;;;;;;4.00;0.32;;;;;;;21.66;50.70;102065.88;7385638;19;20017;-62
2022/08/08 01:52:51;;;;;;;1.58;0.35;;;;;;;21.63;50.28;102059.06;7388080;19;20118;-62
2022/08/08 01:56:10;;;;;;;2.72;0.47;;;;;;;21.62;50.68;102052.03;7387299;19;20007;-63
2022/08/08 01:59:03;;;;;;;5.07;0.43;;;;;;;21.57;50.39;102041.06;7386975;19;20007;-63
2022/08/08 02:02:08;;;;;;;1.77;0.32;;;;;;;21.49;50.70;102045.72;7388462;19;20041;-62
2022/08/08 02:05:23;;;;;;;3.05;0.40;;;;;;;21.42;50.89;102039.50;7383276;19;20010;-63
2022/08/08 02:08:31;;;;;;;2.75;0.30;;;;;;;21.36;51.29;102042.97;7387378;19;20370;-63
2022/08/08 02:11:08;;;;;;;1.42;0.40;;;;;;;21.29;51.49;102043.72;7385664;19;20042;-63
2022/08/08 02:14:04;;;;;;;7.03;0.40;;;;;;;21.26;51.64;102051.31;7388083;19;20057;-64
2022/08/08 02:16:47;;;;;;;4.57;0.40;;;;;;;21.25;51.69;102060.38;7388148;19;20011;-63
2022/08/08 02:19:20;;;;;;;;;;;;;;;21.27;51.63;102061.03;7386278;19;20013;-62
2022/08/08 02:22:30;;;;;;;3.72;0.50;;;;;;;21.27;51.69;102050.31;7387252;19;20308;-63
2022/08/08 02:25:19;;;;;;;5.55;0.47;;;;;;;21.28;51.60;102057.34;7386958;19;20014;-63
2022/08/08 02:28:05;;;;;;;3.05;0.30;;;;;;;21.26;51.75;102054.00;7383380;19;20014;-62
2022/08/08 02:30:55;;;;;;;1.65;0.40;;;;;;;21.23;51.47;102055.19;7386504;19;20028;-63
2022/08/08 02:33:51;;;;;;;1.58;0.30;;;;;;;21.17;52.02;102056.00;7387084;19;20493;-62
2022/08/08 02:36:50;;;;;;;2.53;0.40;;;;;;;21.10;52.33;102044.34;7387383;19;20386;-62
2022/08/08 02:39:32;;;;;;;5.50;0.43;;;;;;;21.05;52.14;102044.09;7387408;19;20127;-62
2022/08/08 02:42:28;;;;;;;4.43;0.55;;;;;;;21.02;52.51;102044.50;7387297;19;20039;-62
2022/08/08 02:45:26;;;;;;;2.22;0.43;;;;;;;20.96;52.75;102047.09;7385182;19;20494;-62
2022/08/08 02:48:27;;;;;;;3.97;0.50;;;;;;;20.91;53.00;102045.84;7385876;19;21233;-62
2022/08/08 02:51:15;;;;;;;2.10;0.40;;;;;;;20.88;53.21;102043.50;7383281;19;20021;-63
2022/08/08 02:54:24;;;;;;;2.58;0.40;;;;;;;20.85;53.54;102051.94;7384824;19;20025;-63
2022/08/08 02:57:08;;;;;;;3.15;0.35;;;;;;;20.83;53.75;102048.59;7386396;19;20006;-62
2022/08/08 03:00:27;;;;;;;4.00;0.50;;;;;;;20.82;53.68;102046.16;7385871;19;20022;-61
2022/08/08 03:03:51;;;;;;;3.75;0.40;;;;;;;20.78;53.87;102044.84;7385750;19;20007;-61
2022/08/08 03:07:06;;;;;;;1.80;0.30;;;;;;;20.74;54.20;102039.06;7383165;19;20014;-63
2022/08/08 03:09:48;;;;;;;2.88;0.40;;;;;;;20.71;54.20;102052.00;7384588;19;20086;-62
2022/08/08 03:12:40;;;;;;;3.05;0.40;;;;;;;20.70;54.47;102061.03;7384300;19;20096;-63
2022/08/08 03:15:47;;;;;;;2.05;0.82;;;;;;;20.65;54.40;102058.09;7382141;19;20136;-63
2022/08/08 03:18:29;;;;;;;3.00;0.50;;;;;;;20.61;54.74;102057.66;7384394;19;20018;-62
2022/08/08 03:20:57;;;;;;;2.67;0.30;;;;;;;20.60;54.87;102057.81;7383325;19;20024;-63
2022/08/08 03:23:29;;;;;;;1.80;0.40;;;;;;;20.60;55.12;102055.16;7385015;19;20019;-63
2022/08/08 03:26:31;;;;;;;2.53;0.40;;;;;;;20.57;55.20;102064.38;7386721;19;20011;-63
2022/08/08 03:29:11;;;;;;;1.95;0.38;;;;;;;20.59;54.92;102064.19;7384027;19;20022;-62
2022/08/08 03:34:38;;;;;;;3.70;0.40;;;;;;;20.52;56.25;102082.00;7382146;19;20013;-63
2022/08/08 03:37:10;;;;;;;0.90;0.40;;;;;;;20.45;56.63;102073.91;7384797;19;20045;-62
2022/08/08 03:40:00;;;;;;;1.50;0.50;;;;;;;20.40;57.16;102077.13;7382941;19;20077;-62
2022/08/08 03:42:30;;;;;;;5.53;0.40;;;;;;;20.35;57.62;102082.22;7385481;19;20483;-63
2022/08/08 03:44:58;;;;;;;1.55;0.40;;;;;;;20.26;57.60;102077.97;7384234;19;20110;-63
2022/08/08 03:47:27;;;;;;;1.65;0.50;;;;;;;20.23;58.16;102078.31;7384512;19;20537;-62
2022/08/08 03:50:17;;;;;;;3.20;0.50;;;;;;;20.18;58.55;102071.84;7381847;19;20014;-62
2022/08/08 03:52:46;;;;;;;2.92;0.73;;;;;;;20.13;59.32;102074.25;7383868;19;20018;-63
2022/08/08 03:55:16;;;;;;;1.80;0.57;;;;;;;20.12;59.70;102072.59;7384955;19;20466;-62
2022/08/08 03:58:04;;;;;;;2.80;0.60;;;;;;;20.12;59.92;102081.44;7384686;19;20432;-63
2022/08/08 04:00:53;;;;;;;2.15;0.60;;;;;;;20.14;60.89;102086.63;7382133;19;20039;-63
2022/08/08 04:03:35;;;;;;;3.75;0.82;;;;;;;20.16;61.16;102085.44;7385647;19;20394;-64
2022/08/08 04:06:22;;;;;;;3.38;0.70;;;;;;;20.19;61.22;102097.59;7382945;19;20131;-63
2022/08/08 04:08:55;;;;;;;3.47;0.60;;;;;;;20.21;61.83;102096.41;7381008;19;20461;-64
2022/08/08 04:11:22;;;;;;;1.75;0.75;;;;;;;20.23;61.98;102091.69;7384878;19;20033;-63
2022/08/08 04:13:51;;;;;;;3.60;0.90;;;;;;;20.24;62.30;102090.66;7383478;19;20106;-62
2022/08/08 04:16:38;;;;;;;3.50;0.80;;;;;;;20.25;62.78;102097.69;7384085;19;20014;-61
2022/08/08 04:19:08;;;;;;;3.60;0.80;;;;;;;20.24;62.92;102108.56;7382515;19;20098;-65
2022/08/08 04:21:51;;;;;;;2.85;0.80;;;;;;;20.23;63.17;102102.38;7384462;19;20010;-64
2022/08/08 04:24:21;;;;;;;2.33;1.20;;;;;;;20.22;63.40;102106.06;7384140;19;20011;-62
2022/08/08 04:26:57;;;;;;;2.60;0.80;;;;;;;20.21;63.69;102109.75;7384972;19;20367;-64
2022/08/08 04:29:26;;;;;;;3.25;0.70;;;;;;;20.22;63.48;102105.22;7383344;19;20010;-64
2022/08/08 04:32:04;;;;;;;2.33;0.52;;;;;;;20.20;63.55;102107.25;7384120;19;20021;-65
2022/08/08 04:34:33;;;;;;;3.47;0.60;;;;;;;20.18;63.48;102110.13;7381860;19;20014;-64
2022/08/08 04:37:20;;;;;;;2.40;0.60;;;;;;;20.16;63.50;102111.31;7380399;19;20010;-64
2022/08/08 04:39:58;;;;;;;4.28;0.60;;;;;;;20.10;63.89;102112.88;7381592;19;20486;-64
2022/08/08 04:42:35;;;;;;;1.90;0.50;;;;;;;20.11;64.06;102105.69;7382835;19;20375;-63
2022/08/08 04:45:04;;;;;;;2.20;0.68;;;;;;;20.10;63.87;102110.22;7384425;19;20025;-68
2022/08/08 04:47:31;;;;;;;2.67;0.77;;;;;;;20.12;64.22;102113.50;7380950;19;20365;-63
2022/08/08 04:50:12;;;;;;;2.78;0.68;;;;;;;20.13;63.96;102107.16;7376114;19;20010;-64
2022/08/08 04:52:54;;;;;;;3.28;0.63;;;;;;;20.14;63.64;102114.19;7382873;19;20506;-63
2022/08/08 04:55:26;;;;;;;6.13;1.15;;;;;;;20.15;63.43;102109.66;7382499;19;20021;-63
2022/08/08 04:58:15;;;;;;;3.45;0.40;;;;;;;20.14;63.77;102116.84;7383610;19;20017;-63
2022/08/08 05:00:43;;;;;;;4.18;0.60;;;;;;;20.14;63.64;102114.19;7381950;19;20014;-64
2022/08/08 05:03:13;;;;;;;1.45;0.50;;;;;;;20.15;63.37;102117.69;7381647;19;20019;-64
2022/08/08 05:06:00;;;;;;;2.35;0.45;;;;;;;20.16;63.45;102122.03;7380679;19;20408;-62
2022/08/08 05:08:39;;;;;;;2.92;0.80;;;;;;;20.16;63.25;102122.84;7381603;19;20023;-62
2022/08/08 05:11:07;;;;;;;3.90;0.50;;;;;;;20.12;63.32;102129.56;7380302;19;20037;-61
2022/08/08 05:13:35;;;;;;;3.55;0.50;;;;;;;20.09;63.92;102127.25;7380230;19;20014;-62
2022/08/08 05:16:22;;;;;;;5.25;0.40;;;;;;;20.08;63.59;102133.63;7382014;19;20017;-63
2022/08/08 05:19:12;;;;;;;3.25;0.50;;;;;;;20.02;64.24;102137.84;7378025;19;20426;-63
2022/08/08 05:21:59;;;;;;;3.03;0.60;;;;;;;20.00;64.86;102139.06;7382286;19;21475;-61
2022/08/08 05:24:26;;;;;;;4.38;0.60;;;;;;;19.92;65.50;102139.13;7379620;19;20033;-64
2022/08/08 05:26:56;;;;;;;2.53;0.60;;;;;;;19.83;66.44;102141.03;7382837;19;20494;-63
2022/08/08 05:29:23;;;;;;;1.60;0.47;;;;;;;19.77;66.59;102143.59;7380031;19;20022;-62
2022/08/08 05:31:55;;;;;;;3.75;0.80;;;;;;;19.74;67.50;102147.47;7381151;19;20026;-63
2022/08/08 05:34:40;;;;;;;3.55;0.82;;;;;;;19.67;68.22;102149.19;7379785;19;20019;-63
2022/08/08 05:37:11;;;;;;;2.40;0.63;;;;;;;19.62;68.77;102154.25;7379310;19;20033;-62
2022/08/08 05:39:48;;;;;;;3.88;0.65;;;;;;;19.63;69.10;102164.75;7383958;19;20010;-62
2022/08/08 05:42:16;;;;;;;2.97;0.68;;;;;;;19.55;69.21;102164.00;7388093;19;20014;-62
2022/08/08 05:44:48;;;;;;;3.00;0.65;;;;;;;19.54;69.60;102162.31;7387147;19;20024;-62
2022/08/08 05:47:20;;;;;;;4.60;0.63;;;;;;;19.49;70.16;102162.88;7388280;19;20010;-66
2022/08/08 05:49:47;;;;;;;2.42;0.52;;;;;;;19.50;70.55;102163.69;7384636;19;20344;-66
2022/08/08 05:52:22;;;;;;;2.97;0.50;;;;;;;19.51;70.62;102173.34;7388242;19;20045;-66
2022/08/08 05:55:11;;;;;;;2.03;0.80;;;;;;;19.51;70.96;102165.34;7388262;19;20021;-67
2022/08/08 05:57:41;;;;;;;5.90;0.80;;;;;;;19.51;71.00;102163.50;7388852;19;20021;-67
2022/08/08 06:00:31;;;;;;;3.40;0.65;;;;;;;19.53;70.96;102174.84;7387811;19;20021;-67
2022/08/08 06:03:10;;;;;;;4.47;1.00;;;;;;;19.55;71.00;102167.50;7389184;19;20078;-68
2022/08/08 06:05:54;;;;;;;5.47;0.75;;;;;;;19.58;71.05;102166.28;7384593;19;20126;-65
2022/08/08 06:08:33;;;;;;;3.80;0.70;;;;;;;19.62;71.07;102175.59;7386435;19;20371;-65
2022/08/08 06:11:02;;;;;;;3.00;0.90;;;;;;;19.66;71.44;102170.75;7388158;19;20086;-67
2022/08/08 06:13:30;;;;;;;3.83;0.80;;;;;;;19.71;71.94;102176.41;7388335;19;20015;-67
2022/08/08 06:16:13;;;;;;;3.13;0.90;;;;;;;19.78;71.09;102175.47;7387511;19;20018;-66
2022/08/08 06:18:40;;;;;;;1.67;0.60;;;;;;;19.79;70.79;102176.31;7384071;19;20018;-65
2022/08/08 06:21:09;;;;;;;4.47;0.73;;;;;;;19.81;70.59;102180.44;7386871;19;20009;-67
2022/08/08 06:23:56;;;;;;;5.32;0.93;;;;;;;19.85;70.73;102183.63;7385940;19;20512;-65
2022/08/08 06:26:42;;;;;;;4.47;0.88;;;;;;;19.86;69.96;102183.41;7388279;19;20006;-68
2022/08/08 06:29:29;;;;;;;2.55;0.80;;;;;;;19.82;70.00;102182.13;7386552;19;20403;-67
2022/08/08 06:32:20;;;;;;;4.93;0.63;;;;;;;19.77;70.40;102184.50;7386446;19;20003;-61
2022/08/08 06:34:53;;;;;;;2.67;0.68;;;;;;;19.78;70.50;102188.00;7383993;19;20014;-63
2022/08/08 06:38:07;;;;;;;5.45;0.90;;;;;;;19.84;70.69;102184.63;7384912;19;20010;-61
2022/08/08 06:40:42;;;;;;;4.72;1.02;;;;;;;19.90;70.46;102192.75;7386040;19;20007;-63
2022/08/08 06:43:20;;;;;;;7.97;1.02;;;;;;;19.97;69.87;102193.69;7386967;19;20568;-62
2022/08/08 06:45:59;;;;;;;4.47;1.00;;;;;;;20.02;69.46;102204.66;7385964;19;20089;-62
2022/08/08 06:48:26;;;;;;;9.13;1.83;;;;;;;20.03;69.24;102206.31;7387197;19;20003;-64
2022/08/08 06:50:54;;;;;;;9.45;3.75;;;;;;;20.07;69.13;102201.44;7380926;19;20011;-64
2022/08/08 06:53:21;;;;;;;9.18;3.50;;;;;;;20.13;68.86;102213.25;7384913;19;20077;-62
2022/08/08 06:55:49;;;;;;;3.83;1.17;;;;;;;20.15;68.63;102200.53;7385506;19;20014;-63
2022/08/08 06:58:28;;;;;;;6.20;1.15;;;;;;;20.16;68.54;102199.53;7385731;19;20530;-63
2022/08/08 07:01:01;;;;;;;5.40;1.08;;;;;;;20.22;68.42;102209.47;7383718;19;20010;-63
2022/08/08 07:04:14;;;;;;;4.75;1.05;;;;;;;20.26;68.41;102208.13;7383819;19;20014;-63
2022/08/08 07:07:03;;;;;;;3.28;0.82;;;;;;;20.32;68.04;102215.44;7386465;19;20014;-64
2022/08/08 07:09:47;;;;;;;5.93;1.10;;;;;;;20.36;67.98;102211.41;7385090;19;20037;-61
2022/08/08 07:12:39;;;;;;;4.55;0.88;;;;;;;20.37;67.83;102216.53;7385641;19;20045;-64
2022/08/08 07:15:10;;;;;;;;;;;;;;;20.38;67.56;102215.53;7387517;19;20518;-63
2022/08/08 07:18:03;;;;;;;6.13;1.35;;;;;;;20.40;67.42;102223.38;7385811;19;19922;-62
2022/08/08 07:20:56;;;;;;;5.28;1.00;;;;;;;20.43;67.16;102218.50;7382720;19;20018;-65
2022/08/08 07:23:37;;;;;;;5.18;0.90;;;;;;;20.43;67.70;102220.34;7386332;19;20014;-66
2022/08/08 07:26:28;;;;;;;6.35;1.10;;;;;;;20.45;67.97;102226.34;7384364;19;20026;-64
2022/08/08 07:29:03;;;;;;;4.82;1.05;;;;;;;20.48;68.03;102229.47;7382411;19;20026;-64
2022/08/08 07:31:33;;;;;;;6.00;1.00;;;;;;;20.55;68.21;102231.41;7386087;19;20014;-64
2022/08/08 07:34:03;;;;;;;2.80;0.85;;;;;;;20.61;67.63;102236.03;7380725;19;20391;-66
2022/08/08 07:36:36;;;;;;;6.85;1.17;;;;;;;20.66;67.16;102233.66;7383934;19;20442;-66
2022/08/08 07:39:24;;;;;;;4.50;1.08;;;;;;;20.72;67.27;102236.41;7385726;19;20508;-67
2022/08/08 07:42:12;;;;;;;7.95;1.20;;;;;;;20.75;67.18;102238.72;7384936;19;20014;-66
2022/08/08 07:44:46;;;;;;;4.22;0.90;;;;;;;20.79;66.52;102242.69;7385526;19;21024;-67
2022/08/08 07:47:16;;;;;;;3.50;0.82;;;;;;;20.85;66.44;102246.47;7384980;19;20022;-67
2022/08/08 07:49:54;;;;;;;6.50;1.08;;;;;;;20.90;65.92;102244.06;7380129;19;20015;-67
2022/08/08 07:52:24;;;;;;;4.50;1.17;;;;;;;20.97;65.52;102249.50;7382983;19;20032;-67
2022/08/08 07:54:57;;;;;;;2.28;0.68;;;;;;;21.07;65.52;102245.53;7385766;19;20011;-67
2022/08/08 07:57:37;;;;;;;6.00;0.70;;;;;;;21.19;65.52;102243.22;7385980;19;20361;-66
2022/08/08 08:00:15;;;;;;;2.45;0.80;;;;;;;21.31;64.63;102244.41;7384538;19;20006;-68
2022/08/08 08:02:54;;;;;;;6.85;0.90;;;;;;;21.39;64.55;102243.44;7382324;19;20006;-64
2022/08/08 08:05:26;;;;;;;5.32;1.02;;;;;;;21.42;64.01;102246.59;7382375;19;20014;-63
2022/08/08 08:08:14;;;;;;;5.93;1.10;;;;;;;21.49;63.88;102242.13;7383949;19;20059;-62
2022/08/08 08:10:54;;;;;;;5.43;1.10;;;;;;;21.46;64.03;102249.72;7382480;19;20270;-64
2022/08/08 08:13:41;;;;;;;6.30;0.90;;;;;;;21.45;64.06;102254.25;7384615;19;20011;-64
2022/08/08 08:16:31;;;;;;;10.57;3.20;;;;;;;21.47;63.44;102254.91;7384695;19;20621;-66
2022/08/08 08:19:02;;;;;;;8.27;2.97;;;;;;;21.48;63.61;102245.84;7382254;19;20018;-63
2022/08/08 08:21:37;;;;;;;9.77;2.60;;;;;;;21.51;63.63;102253.50;7384342;19;20014;-64
2022/08/08 08:24:24;;;;;;;2.83;0.82;;;;;;;21.54;63.72;102250.41;7383267;19;20019;-65
2022/08/08 08:26:57;;;;;;;4.18;0.90;;;;;;;21.63;63.10;102251.97;7385660;19;20010;-66
2022/08/08 08:29:25;;;;;;;4.25;0.70;;;;;;;21.66;63.14;102250.75;7380804;19;20589;-66
2022/08/08 08:31:53;;;;;;;4.00;0.80;;;;;;;21.69;63.27;102259.22;7383136;19;20022;-67
2022/08/08 08:34:24;;;;;;;3.03;0.82;;;;;;;21.74;62.98;102248.78;7381781;19;20006;-67
2022/08/08 08:36:58;;;;;;;2.83;0.80;;;;;;;21.75;63.59;102255.78;7384015;19;20040;-66
2022/08/08 08:39:25;;;;;;;4.22;1.00;;;;;;;21.79;63.46;102253.56;7380560;19;20006;-68
2022/08/08 08:42:14;;;;;;;5.68;1.27;;;;;;;21.85;62.93;102262.69;7383683;19;20011;-65
2022/08/08 08:45:04;;;;;;;3.60;0.68;;;;;;;21.89;62.66;102250.59;7383730;19;20514;-66
2022/08/08 08:47:52;;;;;;;11.32;0.90;;;;;;;21.93;62.74;102241.97;7383929;19;20022;-66
2022/08/08 08:50:22;;;;;;;2.40;0.60;;;;;;;22.04;62.05;102248.69;7380149;19;20018;-65
2022/08/08 08:53:12;;;;;;;2.47;0.80;;;;;;;22.07;62.04;102251.81;7383718;19;20009;-64
2022/08/08 08:56:00;;;;;;;3.00;0.60;;;;;;;22.12;62.66;102241.31;7383942;19;20014;-64
2022/08/08 08:58:35;;;;;;;4.25;1.27;;;;;;;22.18;62.61;102247.78;7381829;19;20011;-64
2022/08/08 09:01:04;;;;;;;4.00;0.70;;;;;;;22.24;61.27;102241.63;7381733;19;20019;-64
2022/08/08 09:03:41;;;;;;;1.98;0.60;;;;;;;22.31;61.44;102244.34;7381329;19;20014;-63
2022/08/08 09:06:28;;;;;;;1.27;0.60;;;;;;;22.37;60.89;102246.25;7384503;19;20036;-64
2022/08/08 09:09:08;;;;;;;4.53;0.63;;;;;;;22.42;61.10;102257.22;7381803;19;20467;-64
2022/08/08 09:11:59;;;;;;;3.30;0.77;;;;;;;22.49;61.11;102250.06;7382684;19;20017;-64
2022/08/08 09:14:32;;;;;;;4.15;0.80;;;;;;;22.58;60.39;102249.72;7388642;19;20017;-64
2022/08/08 09:17:00;;;;;;;1.88;0.70;;;;;;;22.66;59.75;102239.81;7388903;19;20014;-63
2022/08/08 09:19:37;;;;;;;4.82;0.60;;;;;;;22.77;59.50;102245.50;7384459;19;20018;-64
2022/08/08 09:22:25;;;;;;;1.88;0.50;;;;;;;22.86;58.94;102241.63;7391407;19;20011;-67
2022/08/08 09:24:54;;;;;;;3.67;0.60;;;;;;;22.99;57.38;102257.00;7387748;19;20006;-67
2022/08/08 09:27:22;;;;;;;1.20;0.40;;;;;;;23.09;57.46;102248.56;7391275;19;20033;-67
2022/08/08 09:30:13;;;;;;;2.78;0.50;;;;;;;23.22;57.65;102243.22;7387534;19;20070;-65
2022/08/08 09:32:50;;;;;;;1.30;0.45;;;;;;;23.35;56.25;102235.22;7387690;19;20041;-65
2022/08/08 09:35:42;;;;;;;3.63;0.45;;;;;;;23.48;55.69;102237.97;7387590;19;20033;-63
2022/08/08 09:38:30;;;;;;;1.88;0.40;;;;;;;23.55;55.12;102243.38;7387372;19;20010;-64
2022/08/08 09:41:04;;;;;;;4.85;0.63;;;;;;;23.61;55.20;102237.19;7390196;19;20027;-64
2022/08/08 09:43:46;;;;;;;3.85;0.70;;;;;;;23.62;55.12;102228.09;7391219;19;20014;-64
2022/08/08 09:46:33;;;;;;;2.58;0.50;;;;;;;23.73;54.63;102230.16;7390929;19;20351;-64
2022/08/08 09:49:05;;;;;;;2.92;0.50;;;;;;;23.84;54.65;102224.16;7386214;19;20010;-65
2022/08/08 09:51:54;;;;;;;5.63;0.60;;;;;;;23.95;55.35;102226.25;7388659;19;20006;-64
2022/08/08 09:54:41;;;;;;;1.90;0.53;;;;;;;24.03;54.16;102220.66;7389664;19;20030;-64
2022/08/08 09:57:14;;;;;;;5.63;0.93;;;;;;;24.08;54.28;102228.94;7389909;19;20027;-64
2022/08/08 09:59:44;;;;;;;2.30;0.50;;;;;;;24.13;53.93;102231.00;7389263;19;20014;-66
2022/08/08 10:02:36;;;;;;;5.10;0.47;;;;;;;24.22;53.42;102230.63;7388843;19;20018;-65
2022/08/08 10:05:09;;;;;;;5.63;0.50;;;;;;;24.34;53.11;102229.97;7385692;19;20010;-66
2022/08/08 10:07:49;;;;;;;8.57;0.55;;;;;;;24.45;53.11;102232.88;7389184;19;20010;-64
2022/08/08 10:10:35;;;;;;;3.42;0.45;;;;;;;24.55;52.23;102227.88;7387625;19;20083;-63
2022/08/08 10:13:16;;;;;;;3.88;0.40;;;;;;;24.59;51.04;102228.28;7388495;19;20021;-64
2022/08/08 10:15:54;;;;;;;2.30;0.40;;;;;;;24.55;51.12;102224.34;7388192;19;20022;-67
2022/08/08 10:18:34;;;;;;;3.83;0.45;;;;;;;24.58;51.01;102218.56;7390018;19;20015;-64
2022/08/08 10:21:06;;;;;;;2.92;0.50;;;;;;;24.63;50.63;102219.59;7387596;19;20070;-63
2022/08/08 10:23:58;;;;;;;2.50;0.50;;;;;;;24.69;51.30;102215.19;7388096;19;20007;-63
2022/08/08 10:26:25;;;;;;;2.10;0.50;;;;;;;24.75;51.72;102217.03;7388939;19;20037;-64
2022/08/08 10:29:12;;;;;;;3.00;0.40;;;;;;;24.87;51.17;102220.78;7387615;19;20010;-65
2022/08/08 10:34:55;;;;;;;2.13;0.35;;;;;;;24.98;50.39;102213.91;7384747;19;20391;-63
2022/08/08 10:37:32;;;;;;;1.00;0.43;;;;;;;24.99;51.05;102210.97;7383984;19;20017;-64
2022/08/08 10:40:12;;;;;;;2.15;0.50;;;;;;;25.00;50.55;102207.25;7387760;19;20123;-65
2022/08/08 10:42:43;;;;;;;2.38;0.50;;;;;;;25.08;50.69;102220.47;7386878;19;20032;-64
2022/08/08 10:45:11;;;;;;;2.53;0.50;;;;;;;25.08;50.70;102216.97;7387744;19;20011;-64
2022/08/08 10:47:43;;;;;;;1.00;0.50;;;;;;;25.09;50.61;102207.84;7385096;19;20022;-67
2022/08/08 10:50:21;;;;;;;3.63;0.50;;;;;;;25.11;50.85;102209.25;7381231;19;20094;-67
2022/08/08 10:52:49;;;;;;;2.30;0.63;;;;;;;25.06;50.61;102206.38;7387388;19;20015;-66
2022/08/08 10:55:18;;;;;;;5.38;0.90;;;;;;;25.02;50.91;102204.34;7384272;19;20082;-66
2022/08/08 10:58:09;;;;;;;1.02;0.40;;;;;;;25.10;50.66;102204.91;7387514;19;20018;-65
2022/08/08 11:00:42;;;;;;;3.35;0.47;;;;;;;25.11;50.79;102203.03;7387722;19;20022;-65
2022/08/08 11:03:21;;;;;;;2.08;0.30;;;;;;;25.19;49.42;102201.97;7388666;19;20016;-65
2022/08/08 11:06:09;;;;;;;0.70;0.30;;;;;;;25.20;49.47;102192.84;7386767;19;20455;-65
2022/08/08 11:08:41;;;;;;;3.25;0.60;;;;;;;25.29;49.76;102194.25;7377011;19;20725;-65
2022/08/08 11:11:18;;;;;;;2.00;0.50;;;;;;;25.36;49.23;102203.09;7373685;19;20510;-65
2022/08/08 11:14:06;;;;;;;3.20;0.40;;;;;;;25.33;49.32;102208.94;7381351;19;20275;-65
2022/08/08 11:16:43;;;;;;;1.23;0.40;;;;;;;25.24;49.19;102200.28;7385239;19;20011;-66
2022/08/08 11:19:13;;;;;;;2.53;0.40;;;;;;;25.18;50.23;102195.75;7383399;19;20011;-66
2022/08/08 11:21:46;;;;;;;1.33;0.52;;;;;;;25.17;50.61;102207.59;7385822;19;20011;-66
2022/08/08 11:24:25;;;;;;;1.75;0.35;;;;;;;25.18;50.41;102203.03;7383241;19;20141;-66
2022/08/08 11:26:55;;;;;;;0.63;0.30;;;;;;;25.24;49.70;102203.00;7382475;19;20069;-66
2022/08/08 11:29:26;;;;;;;2.27;0.30;;;;;;;25.27;49.38;102197.16;7383637;19;20520;-65
2022/08/08 11:32:15;;;;;;;2.45;0.32;;;;;;;25.26;49.46;102192.81;7382505;19;20261;-65
2022/08/08 11:34:46;;;;;;;14.20;0.50;;;;;;;25.30;49.52;102198.56;7381658;19;20017;-66
2022/08/08 11:37:34;;;;;;;2.83;0.50;;;;;;;25.36;48.91;102203.09;7379498;19;20014;-66
2022/08/08 11:40:22;;;;;;;2.60;0.60;;;;;;;25.38;48.66;102192.94;7384013;19;20342;-66
2022/08/08 11:42:54;;;;;;;0.95;0.30;;;;;;;25.45;49.14;102186.47;7385560;19;20510;-66
2022/08/08 11:45:21;;;;;;;4.53;0.40;;;;;;;25.51;49.33;102188.28;7384739;19;20374;-65
2022/08/08 11:47:50;;;;;;;2.25;0.40;;;;;;;25.58;48.68;102180.19;7383818;19;20019;-66
2022/08/08 11:50:31;;;;;;;3.67;1.38;;;;;;;25.58;48.47;102185.59;7381577;19;20010;-65
2022/08/08 11:53:01;;;;;;;4.20;0.60;;;;;;;25.61;48.66;102185.13;7384758;19;20006;-64
2022/08/08 11:55:34;;;;;;;2.80;0.45;;;;;;;25.66;48.05;102182.59;7381305;19;20010;-65
2022/08/08 11:58:09;;;;;;;1.25;0.30;;;;;;;25.67;48.64;102176.16;7384153;19;20021;-65
2022/08/08 12:00:45;;;;;;;1.08;0.30;;;;;;;25.73;48.36;102163.69;7336322;19;20463;-64
2022/08/08 12:03:23;;;;;;;1.60;0.60;;;;;;;25.76;48.15;102165.94;7377265;19;20010;-63
2022/08/08 12:05:56;;;;;;;2.92;0.30;;;;;;;25.84;47.60;102171.06;7380190;19;20014;-64
2022/08/08 12:08:36;;;;;;;1.65;0.20;;;;;;;25.87;47.82;102157.94;7381447;19;20041;-65
2022/08/08 12:11:09;;;;;;;0.73;0.30;;;;;;;25.86;47.33;102172.47;7380796;19;20506;-63
2022/08/08 12:13:36;;;;;;;0.93;0.15;;;;;;;25.79;47.70;102173.59;7379930;19;20010;-64
2022/08/08 12:16:23;;;;;;;0.70;0.30;;;;;;;25.75;47.78;102165.09;7382982;19;20014;-65
2022/08/08 12:19:00;;;;;;;1.98;0.28;;;;;;;25.82;47.04;102165.06;7380674;19;20018;-64
2022/08/08 12:21:33;;;;;;;1.98;0.30;;;;;;;25.86;46.94;102177.03;7383084;19;20015;-64
2022/08/08 12:24:22;;;;;;;1.50;0.20;;;;;;;25.87;46.58;102159.81;7379965;19;20019;-63
2022/08/08 12:26:55;;;;;;;0.40;0.20;;;;;;;25.91;47.32;102155.63;7382995;19;20010;-63
2022/08/08 12:29:39;;;;;;;2.58;0.20;;;;;;;25.89;47.63;102161.25;7382165;19;20044;-65
2022/08/08 12:32:13;;;;;;;0.98;0.20;;;;;;;25.87;46.52;102149.84;7381541;19;20018;-65
2022/08/08 12:35:01;;;;;;;4.13;0.20;;;;;;;25.86;46.72;102150.91;7379314;19;20374;-65
2022/08/08 12:37:44;;;;;;;3.10;0.30;;;;;;;25.89;47.25;102149.66;7379404;19;20594;-66
2022/08/08 12:40:46;;;;;;;0.82;0.30;;;;;;;26.00;47.55;102157.00;7380072;19;20380;-63
2022/08/08 12:43:32;;;;;;;1.08;0.30;;;;;;;26.07;46.46;102155.06;7381301;19;20014;-63